Back to Top

Language: 

My Weather Underground Personal Weather Station Historical Data with Graphs...

Delerius Weather Station Historical Data
Daily Summary for December 7, 2017 Units:  Metric    English   Both
« Previous Day
Next Day »
Daily Weekly Monthly Yearly Custom
  High: Low: Average:
Temperature: 12.5 °C 2.9 °C 8.1 °C
Dew Point: 11.1 °C -1.1 °C 5.3 °C
Humidity: 92 % 72 % 83 %
Wind Speed: 35.4 km/h 4.8 km/h 22.9 km/h
Wind Gust: 54.7 km/h - -
Wind:- - WSW
Pressure: 1007.7 hPa 998.9 hPa -
Precipitation: 2.54 mm    
Historical Graphs
 
 
Tabular Data for December 7, 2017
Time Temperature Dew Point Pressure Wind Wind Speed Wind Gust Humidity Rainfall Rate (Hourly) solar Conditions
00:00 11.1 °C 8.5 °C 1007.7 hPa SSW 25.7 km/h 37 km/h 84 % 0 mm 0 W/m2
00:04 11.1 °C 8.5 °C 1007.7 hPa SSW 27.4 km/h 48.3 km/h 84 % 0 mm 0 W/m2
00:09 11.2 °C 8.6 °C 1007.7 hPa SSW 17.7 km/h 29 km/h 84 % 0 mm 0 W/m2
00:14 11.2 °C 8.6 °C 1007.7 hPa SSW 30.6 km/h 43.5 km/h 84 % 0 mm 0 W/m2
00:19 11.2 °C 8.6 °C 1007.3 hPa SSW 25.7 km/h 46.7 km/h 84 % 0 mm 0 W/m2
00:24 11.2 °C 8.8 °C 1007.3 hPa SSW 27.4 km/h 37 km/h 85 % 0 mm 0 W/m2
00:29 11.2 °C 8.8 °C 1007 hPa SSW 22.5 km/h 38.6 km/h 85 % 0 mm 0 W/m2
00:34 11.2 °C 8.8 °C 1007 hPa SSW 19.3 km/h 25.7 km/h 85 % 0 mm 0 W/m2
00:39 11.2 °C 8.8 °C 1006.7 hPa SSW 20.9 km/h 35.4 km/h 85 % 0 mm 0 W/m2
00:44 11.2 °C 8.8 °C 1006.7 hPa SSW 22.5 km/h 41.8 km/h 85 % 0 mm 0 W/m2
00:46 11.2 °C 8.8 °C 1006.7 hPa South 27.4 km/h 38.6 km/h 85 % 0 mm 0 W/m2
00:51 11.2 °C 8.8 °C 1006.7 hPa SSW 20.9 km/h 35.4 km/h 85 % 0 mm 0 W/m2
00:56 11.2 °C 8.8 °C 1006.3 hPa South 19.3 km/h 33.8 km/h 85 % 0 mm 0 W/m2
01:01 11.2 °C 8.8 °C 1006.3 hPa SSW 25.7 km/h 49.9 km/h 85 % 0 mm 0 W/m2
01:06 11.2 °C 8.9 °C 1006 hPa South 19.3 km/h 35.4 km/h 86 % 0 mm 0 W/m2
01:16 11.2 °C 8.9 °C 1006 hPa SSW 22.5 km/h 32.2 km/h 86 % 0 mm 0 W/m2
01:21 11.2 °C 8.9 °C 1006 hPa SSW 17.7 km/h 25.7 km/h 86 % 0 mm 0 W/m2
01:26 11.2 °C 8.9 °C 1005.6 hPa SSW 20.9 km/h 37 km/h 86 % 0 mm 0 W/m2
01:31 11.2 °C 8.9 °C 1005.3 hPa SSE 22.5 km/h 35.4 km/h 86 % 0 mm 0 W/m2
01:36 11.2 °C 9.1 °C 1005.3 hPa SSE 24.1 km/h 38.6 km/h 87 % 0 mm 0 W/m2
01:41 11.2 °C 9.1 °C 1005 hPa South 19.3 km/h 32.2 km/h 87 % 0 mm 0 W/m2
01:46 11.2 °C 9.1 °C 1005 hPa SSE 22.5 km/h 40.2 km/h 87 % 0 mm 0 W/m2
01:51 11.2 °C 9.1 °C 1005 hPa SSE 20.9 km/h 35.4 km/h 87 % 0 mm 0 W/m2
01:56 11.2 °C 9.1 °C 1005 hPa South 17.7 km/h 29 km/h 87 % 0 mm 0 W/m2
02:01 11.3 °C 9.2 °C 1004.6 hPa South 20.9 km/h 38.6 km/h 87 % 0 mm 0 W/m2
02:06 11.3 °C 9.2 °C 1004.6 hPa South 19.3 km/h 32.2 km/h 87 % 0 mm 0 W/m2
02:11 11.3 °C 9.2 °C 1004.3 hPa SSW 19.3 km/h 37 km/h 87 % 0 mm 0 W/m2
02:16 11.4 °C 9.3 °C 1004.6 hPa SSW 27.4 km/h 54.7 km/h 87 % 0 mm 0 W/m2
02:21 11.4 °C 9.3 °C 1004.6 hPa South 17.7 km/h 32.2 km/h 87 % 0 mm 0 W/m2
02:26 11.5 °C 9.4 °C 1004.3 hPa SSW 20.9 km/h 32.2 km/h 87 % 0 mm 0 W/m2
02:31 11.5 °C 9.4 °C 1003.9 hPa SSW 14.5 km/h 25.7 km/h 87 % 0 mm 0 W/m2
02:36 11.6 °C 9.5 °C 1003.9 hPa South 24.1 km/h 41.8 km/h 87 % 0 mm 0 W/m2
02:41 11.7 °C 9.6 °C 1003.6 hPa SSW 19.3 km/h 37 km/h 87 % 0 mm 0 W/m2
02:46 11.8 °C 9.7 °C 1003.6 hPa SSW 25.7 km/h 37 km/h 87 % 0 mm 0 W/m2
02:51 11.8 °C 9.7 °C 1003.6 hPa SSW 20.9 km/h 43.5 km/h 87 % 0 mm 0 W/m2
02:56 11.9 °C 9.8 °C 1003.3 hPa SW 27.4 km/h 48.3 km/h 87 % 0 mm 0 W/m2
03:01 11.9 °C 9.8 °C 1002.9 hPa SW 20.9 km/h 33.8 km/h 87 % 0 mm 0 W/m2
03:06 11.9 °C 9.8 °C 1002.9 hPa SSW 25.7 km/h 40.2 km/h 87 % 0 mm 0 W/m2
03:12 11.9 °C 9.8 °C 1002.9 hPa SSW 25.7 km/h 37 km/h 87 % 0 mm 0 W/m2
03:17 11.9 °C 10 °C 1002.9 hPa SSW 24.1 km/h 41.8 km/h 88 % 0 mm 0 W/m2
03:22 11.9 °C 10 °C 1002.6 hPa SSW 24.1 km/h 41.8 km/h 88 % 0 mm 0 W/m2
03:23 11.9 °C 9.8 °C 1002.6 hPa SSW 20.9 km/h 37 km/h 87 % 0 mm 0 W/m2
03:24 11.9 °C 9.8 °C 1002.6 hPa SSW 22.5 km/h 41.8 km/h 87 % 0 mm 0 W/m2
03:29 11.9 °C 9.8 °C 1002.3 hPa SSW 24.1 km/h 35.4 km/h 87 % 0 mm 0 W/m2
03:34 12 °C 9.9 °C 1002.3 hPa SSW 24.1 km/h 41.8 km/h 87 % 0 mm 0 W/m2
03:39 12.1 °C 10 °C 1002.3 hPa SSW 27.4 km/h 45.1 km/h 87 % 0 mm 0 W/m2
03:49 12.1 °C 10 °C 1001.9 hPa SSW 25.7 km/h 41.8 km/h 87 % 0 mm 0 W/m2
03:54 12.1 °C 10.2 °C 1002.3 hPa SW 30.6 km/h 49.9 km/h 88 % 0 mm 0 W/m2
03:59 11.9 °C 10.2 °C 1001.9 hPa SW 24.1 km/h 37 km/h 89 % 0 mm 0 W/m2
04:04 11.8 °C 10.1 °C 1001.9 hPa SW 29 km/h 41.8 km/h 89 % 0 mm 0 W/m2
04:14 11.9 °C 10.2 °C 1001.6 hPa SSW 20.9 km/h 32.2 km/h 89 % 0 mm 0 W/m2
04:19 11.9 °C 10.2 °C 1001.6 hPa SSW 22.5 km/h 35.4 km/h 89 % 0 mm 0 W/m2
04:24 11.9 °C 10.2 °C 1001.6 hPa SSW 20.9 km/h 32.2 km/h 89 % 0 mm 0 W/m2
04:29 11.9 °C 10.2 °C 1001.6 hPa SSW 29 km/h 46.7 km/h 89 % 0 mm 0 W/m2
04:34 12 °C 10.2 °C 1001.6 hPa SSW 25.7 km/h 38.6 km/h 89 % 0 mm 0 W/m2
04:39 12 °C 10.2 °C 1001.6 hPa SSW 22.5 km/h 32.2 km/h 89 % 0 mm 0 W/m2
04:44 11.9 °C 10.2 °C 1001.2 hPa SSW 25.7 km/h 41.8 km/h 89 % 0 mm 0 W/m2
04:49 12 °C 10.2 °C 1000.9 hPa SSW 24.1 km/h 37 km/h 89 % 0 mm 0 W/m2
04:54 12 °C 10.4 °C 1000.9 hPa SW 29 km/h 43.5 km/h 90 % 0 mm 0 W/m2
04:59 11.9 °C 10.3 °C 1000.9 hPa SSW 27.4 km/h 40.2 km/h 90 % 0 mm 0 W/m2
05:04 12 °C 10.4 °C 1000.6 hPa SSW 25.7 km/h 38.6 km/h 90 % 0 mm 0 W/m2
05:09 12 °C 10.4 °C 1000.6 hPa SW 25.7 km/h 40.2 km/h 90 % 0 mm 0 W/m2
05:14 12.1 °C 10.5 °C 1000.2 hPa SW 29 km/h 45.1 km/h 90 % 0 mm 0 W/m2
05:19 12.2 °C 10.6 °C 1000.2 hPa SW 27.4 km/h 41.8 km/h 90 % 0 mm 0 W/m2
05:24 12.3 °C 10.6 °C 1000.2 hPa SW 27.4 km/h 48.3 km/h 89 % 0 mm 0 W/m2
05:29 12.4 °C 10.6 °C 1000.2 hPa SW 25.7 km/h 46.7 km/h 89 % 0 mm 0 W/m2
05:34 12.4 °C 10.4 °C 1000.2 hPa SW 29 km/h 46.7 km/h 88 % 0 mm 0 W/m2
05:39 12.5 °C 10.6 °C 1000.2 hPa SSW 32.2 km/h 45.1 km/h 88 % 0 mm 0 W/m2
05:44 12.4 °C 10.4 °C 1000.2 hPa SW 25.7 km/h 41.8 km/h 88 % 0 mm 0 W/m2
05:49 12.4 °C 10.6 °C 1000.2 hPa SW 25.7 km/h 43.5 km/h 89 % 0 mm 0 W/m2
05:54 12.3 °C 10.7 °C 1000.2 hPa SSW 27.4 km/h 40.2 km/h 90 % 0 mm 0 W/m2
05:59 12.3 °C 10.7 °C 999.9 hPa SW 27.4 km/h 45.1 km/h 90 % 0 mm 0 W/m2
06:04 12.3 °C 10.7 °C 999.9 hPa SW 20.9 km/h 35.4 km/h 90 % 0 mm 0 W/m2
06:09 12.2 °C 10.8 °C 999.9 hPa SW 22.5 km/h 40.2 km/h 91 % 0.25 mm 0 W/m2
06:14 12.2 °C 10.8 °C 999.9 hPa SSW 25.7 km/h 38.6 km/h 91 % 0.25 mm 0 W/m2
06:19 12.2 °C 10.8 °C 999.5 hPa SW 29 km/h 41.8 km/h 91 % 0.25 mm 0 W/m2
06:24 12.2 °C 10.8 °C 999.5 hPa SW 24.1 km/h 37 km/h 91 % 0.25 mm 0 W/m2
06:29 12.2 °C 10.8 °C 999.2 hPa SW 25.7 km/h 41.8 km/h 91 % 0.25 mm 0 W/m2
06:32 12.2 °C 10.8 °C 999.5 hPa SW 25.7 km/h 41.8 km/h 91 % 0.25 mm 0 W/m2
06:37 12.2 °C 10.8 °C 999.2 hPa SW 27.4 km/h 37 km/h 91 % 0.51 mm 0 W/m2
06:42 12.3 °C 10.9 °C 999.2 hPa SW 29 km/h 43.5 km/h 91 % 0.51 mm 0 W/m2
06:47 12.2 °C 10.8 °C 999.2 hPa SW 17.7 km/h 30.6 km/h 91 % 0.51 mm 0 W/m2
06:52 12.2 °C 10.8 °C 999.2 hPa SW 24.1 km/h 37 km/h 91 % 0.51 mm 0 W/m2
06:57 12.2 °C 10.8 °C 998.9 hPa SW 19.3 km/h 33.8 km/h 91 % 0.51 mm 0 W/m2
07:02 12.2 °C 10.8 °C 998.9 hPa SW 17.7 km/h 32.2 km/h 91 % 0.51 mm 0 W/m2
07:07 12.2 °C 10.9 °C 998.9 hPa SW 17.7 km/h 29 km/h 92 % 0.51 mm 0 W/m2
07:12 12.2 °C 10.8 °C 998.9 hPa SW 17.7 km/h 30.6 km/h 91 % 0.51 mm 0 W/m2
07:17 12.3 °C 10.9 °C 998.9 hPa SW 17.7 km/h 32.2 km/h 91 % 0.51 mm 0 W/m2
07:22 12.3 °C 11.1 °C 998.9 hPa SW 19.3 km/h 32.2 km/h 92 % 0.51 mm 0 W/m2
07:27 12.3 °C 11.1 °C 998.9 hPa SW 19.3 km/h 29 km/h 92 % 0.51 mm 0 W/m2
07:32 12.4 °C 11.1 °C 998.9 hPa SW 22.5 km/h 38.6 km/h 92 % 0.51 mm 0 W/m2
07:37 12.4 °C 11.1 °C 998.9 hPa SW 17.7 km/h 29 km/h 92 % 0.25 mm 0 W/m2
07:42 12.4 °C 11.1 °C 999.2 hPa SW 19.3 km/h 30.6 km/h 92 % 0.25 mm 0 W/m2
07:47 12.3 °C 11.1 °C 999.9 hPa WNW 22.5 km/h 48.3 km/h 92 % 0.25 mm 0 W/m2
07:49 11.6 °C 9.7 °C 1000.2 hPa WNW 27.4 km/h 46.7 km/h 88 % 0.25 mm 0 W/m2
07:54 10.5 °C 8.6 °C 1000.2 hPa WNW 20.9 km/h 35.4 km/h 88 % 0.51 mm 0 W/m2
07:59 9.7 °C 8 °C 1000.6 hPa WNW 22.5 km/h 37 km/h 89 % 0.51 mm 0 W/m2
08:04 9.2 °C 7.7 °C 1000.6 hPa WNW 24.1 km/h 35.4 km/h 90 % 0.51 mm 0 W/m2
08:09 8.9 °C 7.5 °C 1000.9 hPa West 17.7 km/h 25.7 km/h 91 % 0.51 mm 0 W/m2
08:14 8.6 °C 7.1 °C 1000.9 hPa West 20.9 km/h 30.6 km/h 90 % 0.51 mm 0 W/m2
08:19 8.4 °C 6.7 °C 1001.2 hPa West 24.1 km/h 35.4 km/h 89 % 0.51 mm 5 W/m2
08:24 8.4 °C 6.7 °C 1001.2 hPa WNW 20.9 km/h 33.8 km/h 89 % 0.51 mm 9 W/m2
08:30 8.3 °C 6.4 °C 1001.2 hPa West 17.7 km/h 38.6 km/h 88 % 0.51 mm 11 W/m2
08:35 8.2 °C 6 °C 1001.2 hPa West 27.4 km/h 48.3 km/h 86 % 0.51 mm 14 W/m2
08:40 8.1 °C 5.7 °C 1001.2 hPa West 20.9 km/h 32.2 km/h 85 % 0.51 mm 16 W/m2
08:45 8.1 °C 5.7 °C 1001.6 hPa West 22.5 km/h 35.4 km/h 85 % 0.51 mm 16 W/m2
08:50 8.1 °C 5.6 °C 1001.6 hPa West 24.1 km/h 40.2 km/h 84 % 0.51 mm 18 W/m2
08:55 8.1 °C 5.6 °C 1001.6 hPa West 25.7 km/h 43.5 km/h 84 % 0 mm 19 W/m2
09:00 8 °C 5.4 °C 1001.9 hPa West 24.1 km/h 41.8 km/h 84 % 0 mm 19 W/m2
09:05 8 °C 5.4 °C 1001.9 hPa West 29 km/h 43.5 km/h 84 % 0 mm 26 W/m2
09:10 8 °C 5.3 °C 1001.9 hPa West 29 km/h 46.7 km/h 83 % 0 mm 32 W/m2
09:15 7.9 °C 5 °C 1001.9 hPa WNW 29 km/h 46.7 km/h 82 % 0 mm 39 W/m2
09:20 7.9 °C 4.8 °C 1001.9 hPa West 22.5 km/h 35.4 km/h 81 % 0 mm 42 W/m2
09:25 7.8 °C 4.7 °C 1001.9 hPa West 20.9 km/h 37 km/h 81 % 0 mm 40 W/m2
09:30 7.8 °C 4.7 °C 1002.3 hPa West 29 km/h 45.1 km/h 81 % 0 mm 37 W/m2
09:35 7.7 °C 4.4 °C 1002.3 hPa West 29 km/h 45.1 km/h 80 % 0 mm 35 W/m2
09:40 7.7 °C 4.4 °C 1002.3 hPa West 30.6 km/h 48.3 km/h 80 % 0 mm 37 W/m2
09:45 7.6 °C 4.4 °C 1002.3 hPa West 25.7 km/h 38.6 km/h 80 % 0 mm 39 W/m2
09:50 7.5 °C 4.3 °C 1002.6 hPa West 25.7 km/h 41.8 km/h 80 % 0 mm 54 W/m2
09:55 7.4 °C 4.2 °C 1002.6 hPa West 24.1 km/h 38.6 km/h 80 % 0 mm 121 W/m2
10:00 7.4 °C 4 °C 1002.9 hPa West 32.2 km/h 48.3 km/h 79 % 0 mm 128 W/m2
10:05 7.6 °C 4.2 °C 1002.9 hPa WNW 35.4 km/h 53.1 km/h 79 % 0 mm 188 W/m2
10:10 7.7 °C 4.3 °C 1002.9 hPa WNW 27.4 km/h 40.2 km/h 79 % 0 mm 199 W/m2
10:15 7.8 °C 4.2 °C 1002.9 hPa WNW 24.1 km/h 43.5 km/h 78 % 0 mm 204 W/m2
10:20 7.9 °C 4.3 °C 1003.3 hPa WNW 30.6 km/h 46.7 km/h 78 % 0 mm 214 W/m2
10:25 7.9 °C 4.1 °C 1003.3 hPa WNW 30.6 km/h 46.7 km/h 77 % 0 mm 185 W/m2
10:30 7.9 °C 4.3 °C 1003.3 hPa WNW 29 km/h 45.1 km/h 78 % 0 mm 165 W/m2
10:35 7.9 °C 4.1 °C 1003.3 hPa WNW 32.2 km/h 48.3 km/h 77 % 0 mm 171 W/m2
10:36 7.9 °C 4.1 °C 1003.3 hPa WNW 30.6 km/h 45.1 km/h 77 % 0 mm 163 W/m2
10:41 7.9 °C 4.1 °C 1003.3 hPa WNW 30.6 km/h 46.7 km/h 77 % 0 mm 202 W/m2
10:46 8 °C 4 °C 1003.6 hPa WNW 29 km/h 45.1 km/h 76 % 0 mm 186 W/m2
10:51 8 °C 4 °C 1003.3 hPa WNW 30.6 km/h 51.5 km/h 76 % 0 mm 155 W/m2
10:56 8 °C 4 °C 1003.6 hPa WNW 29 km/h 41.8 km/h 76 % 0 mm 135 W/m2
11:01 8 °C 3.8 °C 1003.6 hPa WNW 25.7 km/h 48.3 km/h 75 % 0 mm 149 W/m2
11:07 8.1 °C 4.1 °C 1003.6 hPa WNW 27.4 km/h 38.6 km/h 76 % 0 mm 135 W/m2
11:12 8.1 °C 3.9 °C 1003.6 hPa WNW 22.5 km/h 40.2 km/h 75 % 0 mm 171 W/m2
11:17 8.2 °C 4.2 °C 1003.9 hPa WNW 17.7 km/h 40.2 km/h 76 % 0 mm 156 W/m2
11:22 8.2 °C 4.1 °C 1003.9 hPa WNW 22.5 km/h 38.6 km/h 75 % 0 mm 142 W/m2
11:27 8.3 °C 4.1 °C 1003.6 hPa WNW 24.1 km/h 43.5 km/h 75 % 0 mm 97 W/m2
11:32 8.3 °C 4.1 °C 1003.6 hPa WNW 22.5 km/h 40.2 km/h 75 % 0 mm 72 W/m2
11:37 8.2 °C 4.1 °C 1003.6 hPa WNW 20.9 km/h 46.7 km/h 75 % 0 mm 81 W/m2
11:42 8.2 °C 4.1 °C 1003.6 hPa WNW 27.4 km/h 51.5 km/h 75 % 0 mm 84 W/m2
11:47 8.2 °C 4.1 °C 1003.6 hPa WNW 25.7 km/h 40.2 km/h 75 % 0 mm 83 W/m2
11:52 8.2 °C 4.1 °C 1003.6 hPa WNW 32.2 km/h 49.9 km/h 75 % 0 mm 107 W/m2
11:57 8.2 °C 4.1 °C 1003.6 hPa WNW 25.7 km/h 43.5 km/h 75 % 0 mm 116 W/m2
12:02 8.2 °C 4.1 °C 1003.6 hPa WNW 20.9 km/h 41.8 km/h 75 % 0 mm 102 W/m2
12:07 8.2 °C 4.1 °C 1003.6 hPa WNW 25.7 km/h 37 km/h 75 % 0 mm 98 W/m2
12:12 8.2 °C 4.1 °C 1003.6 hPa WNW 16.1 km/h 22.5 km/h 75 % 0 mm 162 W/m2
12:17 8.2 °C 3.7 °C 1003.6 hPa WNW 29 km/h 54.7 km/h 73 % 0 mm 156 W/m2
12:22 8.2 °C 3.7 °C 1003.6 hPa WNW 30.6 km/h 43.5 km/h 73 % 0 mm 155 W/m2
12:27 8.3 °C 3.7 °C 1003.6 hPa West 30.6 km/h 49.9 km/h 73 % 0 mm 156 W/m2
12:32 8.2 °C 3.7 °C 1003.6 hPa WNW 33.8 km/h 48.3 km/h 73 % 0 mm 162 W/m2
12:52 8.2 °C 3.7 °C 1003.6 hPa WNW 32.2 km/h 49.9 km/h 73 % 0 mm 121 W/m2
12:57 8.2 °C 3.7 °C 1003.6 hPa WNW 30.6 km/h 49.9 km/h 73 % 0 mm 113 W/m2
13:07 8.1 °C 3.6 °C 1003.9 hPa West 22.5 km/h 48.3 km/h 73 % 0 mm 81 W/m2
13:12 8.1 °C 3.6 °C 1003.9 hPa WNW 25.7 km/h 41.8 km/h 73 % 0 mm 77 W/m2
13:17 8 °C 3.4 °C 1004.3 hPa West 32.2 km/h 49.9 km/h 73 % 0 mm 77 W/m2
13:32 7.8 °C 3.1 °C 1004.3 hPa WNW 32.2 km/h 43.5 km/h 72 % 0 mm 81 W/m2
13:37 7.8 °C 3.1 °C 1004.3 hPa WNW 30.6 km/h 46.7 km/h 72 % 0 mm 81 W/m2
13:42 7.7 °C 2.9 °C 1004.6 hPa WNW 27.4 km/h 41.8 km/h 72 % 0 mm 77 W/m2
13:52 7.7 °C 2.9 °C 1004.6 hPa WNW 27.4 km/h 38.6 km/h 72 % 0 mm 54 W/m2
13:57 7.7 °C 2.9 °C 1004.6 hPa WNW 29 km/h 41.8 km/h 72 % 0 mm 60 W/m2
14:02 7.6 °C 2.9 °C 1004.6 hPa West 30.6 km/h 45.1 km/h 72 % 0 mm 109 W/m2
14:07 7.6 °C 2.9 °C 1004.6 hPa WNW 30.6 km/h 41.8 km/h 72 % 0 mm 153 W/m2
14:12 7.7 °C 2.9 °C 1004.6 hPa WNW 24.1 km/h 41.8 km/h 72 % 0 mm 62 W/m2
14:17 7.6 °C 2.9 °C 1005 hPa WNW 24.1 km/h 46.7 km/h 72 % 0 mm 56 W/m2
14:22 7.6 °C 2.9 °C 1005 hPa WNW 24.1 km/h 33.8 km/h 72 % 0 mm 47 W/m2
14:27 7.6 °C 3.1 °C 1005 hPa WNW 19.3 km/h 32.2 km/h 73 % 0 mm 100 W/m2
14:32 7.6 °C 3.1 °C 1004.6 hPa West 17.7 km/h 29 km/h 73 % 0 mm 88 W/m2
14:37 7.6 °C 2.9 °C 1004.6 hPa West 25.7 km/h 41.8 km/h 72 % 0 mm 32 W/m2
14:41 7.5 °C 2.8 °C 1004.6 hPa West 20.9 km/h 33.8 km/h 72 % 0 mm 26 W/m2
14:51 7.3 °C 2.6 °C 1005 hPa WNW 20.9 km/h 33.8 km/h 72 % 0 mm 18 W/m2
15:01 7.2 °C 2.7 °C 1005.3 hPa WNW 19.3 km/h 35.4 km/h 73 % 0 mm 7 W/m2
15:11 6.3 °C 3.1 °C 1005 hPa WNW 14.5 km/h 24.1 km/h 80 % 0.25 mm 16 W/m2
15:31 5.8 °C 3.1 °C 1005 hPa WNW 16.1 km/h 29 km/h 83 % 0.25 mm 7 W/m2
15:36 5.8 °C 3.1 °C 1005.3 hPa West 16.1 km/h 29 km/h 83 % 0.25 mm 7 W/m2
15:42 5.7 °C 2.7 °C 1005.3 hPa West 25.7 km/h 43.5 km/h 81 % 0.25 mm 5 W/m2
15:47 5.8 °C 2.6 °C 1005.3 hPa West 22.5 km/h 33.8 km/h 80 % 0.25 mm 0 W/m2
15:52 5.8 °C 2.4 °C 1005.3 hPa West 27.4 km/h 43.5 km/h 79 % 0.25 mm 0 W/m2
15:57 5.7 °C 2.2 °C 1005.3 hPa WNW 24.1 km/h 35.4 km/h 78 % 0.25 mm 0 W/m2
16:02 5.7 °C 2.2 °C 1005.3 hPa West 24.1 km/h 41.8 km/h 78 % 0.25 mm 0 W/m2
16:07 5.6 °C 2.1 °C 1005.3 hPa WNW 20.9 km/h 40.2 km/h 78 % 0 mm 0 W/m2
16:12 5.5 °C 1.9 °C 1005.3 hPa WNW 20.9 km/h 32.2 km/h 78 % 0 mm 0 W/m2
16:17 5.5 °C 1.9 °C 1005.3 hPa West 22.5 km/h 33.8 km/h 78 % 0 mm 0 W/m2
16:22 5.4 °C 1.9 °C 1005.6 hPa West 22.5 km/h 38.6 km/h 78 % 0 mm 0 W/m2
16:27 5.4 °C 1.9 °C 1005.6 hPa West 17.7 km/h 25.7 km/h 78 % 0 mm 0 W/m2
16:32 5.3 °C 1.9 °C 1005.6 hPa West 22.5 km/h 30.6 km/h 79 % 0 mm 0 W/m2
16:37 5.3 °C 1.9 °C 1005.6 hPa WNW 20.9 km/h 32.2 km/h 79 % 0 mm 0 W/m2
16:53 5.4 °C 2.4 °C 1005.6 hPa WNW 11.3 km/h 17.7 km/h 81 % 0 mm 0 W/m2
16:58 5.3 °C 2.5 °C 1006 hPa NW 14.5 km/h 22.5 km/h 82 % 0 mm 0 W/m2
17:03 5.3 °C 2.7 °C 1006 hPa NW 14.5 km/h 22.5 km/h 83 % 0 mm 0 W/m2
17:09 5.2 °C 2.9 °C 1006 hPa WNW 12.9 km/h 19.3 km/h 85 % 0 mm 0 W/m2
17:14 5.1 °C 2.8 °C 1006.3 hPa WNW 12.9 km/h 17.7 km/h 85 % 0 mm 0 W/m2
17:19 4.9 °C 2.8 °C 1006.3 hPa NW 14.5 km/h 22.5 km/h 86 % 0 mm 0 W/m2
17:29 4.4 °C 2.1 °C 1006.7 hPa NW 20.9 km/h 35.4 km/h 85 % 0.51 mm 0 W/m2
17:34 3.9 °C 1.9 °C 1006.3 hPa WNW 16.1 km/h 25.7 km/h 87 % 0.51 mm 0 W/m2
17:39 3.8 °C 2 °C 1006.3 hPa WNW 16.1 km/h 24.1 km/h 88 % 0.51 mm 0 W/m2
17:44 3.7 °C 2.1 °C 1006.7 hPa WNW 17.7 km/h 29 km/h 89 % 0.51 mm 0 W/m2
17:49 3.7 °C 2.2 °C 1006.7 hPa WNW 19.3 km/h 29 km/h 90 % 0.51 mm 0 W/m2
17:54 3.7 °C 2.2 °C 1006.3 hPa WNW 17.7 km/h 29 km/h 90 % 0.51 mm 0 W/m2
17:59 3.7 °C 2.2 °C 1006.3 hPa West 16.1 km/h 25.7 km/h 90 % 0.51 mm 0 W/m2
18:00 3.8 °C 2.3 °C 1006.3 hPa West 16.1 km/h 25.7 km/h 90 % 0.51 mm 0 W/m2
18:05 3.8 °C 2.3 °C 1006.7 hPa West 19.3 km/h 30.6 km/h 90 % 0.51 mm 0 W/m2
18:10 3.9 °C 2.6 °C 1006.7 hPa WNW 20.9 km/h 40.2 km/h 91 % 0.51 mm 0 W/m2
18:15 3.9 °C 2.4 °C 1006.7 hPa WNW 29 km/h 45.1 km/h 90 % 0.76 mm 0 W/m2
18:20 3.9 °C 2.3 °C 1006.7 hPa WNW 27.4 km/h 41.8 km/h 89 % 0.76 mm 0 W/m2
18:30 3.8 °C 2.3 °C 1007 hPa WNW 24.1 km/h 43.5 km/h 90 % 0.51 mm 0 W/m2
18:35 3.8 °C 2.3 °C 1007 hPa West 22.5 km/h 33.8 km/h 90 % 0.25 mm 0 W/m2
18:40 3.8 °C 2.3 °C 1007 hPa West 17.7 km/h 25.7 km/h 90 % 0.25 mm 0 W/m2
18:45 3.7 °C 2.2 °C 1007 hPa WNW 24.1 km/h 43.5 km/h 90 % 0.25 mm 0 W/m2
18:50 3.6 °C 1.9 °C 1006.7 hPa WNW 30.6 km/h 49.9 km/h 89 % 0.25 mm 0 W/m2
18:55 3.5 °C 1.8 °C 1006.7 hPa West 22.5 km/h 41.8 km/h 89 % 0.25 mm 0 W/m2
19:05 3.2 °C 1.6 °C 1006.7 hPa West 19.3 km/h 32.2 km/h 89 % 0.51 mm 0 W/m2
19:10 3.2 °C 1.7 °C 1007 hPa West 19.3 km/h 30.6 km/h 90 % 0.51 mm 0 W/m2
19:20 3.1 °C 1.6 °C 1007 hPa West 16.1 km/h 29 km/h 90 % 0.25 mm 0 W/m2
19:25 3.1 °C 1.6 °C 1007 hPa West 19.3 km/h 30.6 km/h 90 % 0.25 mm 0 W/m2
19:40 3.6 °C 1.8 °C 1006.7 hPa West 22.5 km/h 41.8 km/h 88 % 0.25 mm 0 W/m2
19:45 3.7 °C 1.7 °C 1007 hPa West 22.5 km/h 32.2 km/h 87 % 0.25 mm 0 W/m2
19:50 3.7 °C 1.4 °C 1007 hPa West 20.9 km/h 32.2 km/h 85 % 0.25 mm 0 W/m2
19:55 3.6 °C 1.2 °C 1007 hPa WNW 22.5 km/h 48.3 km/h 84 % 0.25 mm 0 W/m2
20:00 3.6 °C 1 °C 1007 hPa WNW 24.1 km/h 37 km/h 83 % 0 mm 0 W/m2
20:05 3.6 °C 0.8 °C 1007 hPa West 22.5 km/h 35.4 km/h 82 % 0 mm 0 W/m2
20:15 3.6 °C 0.7 °C 1006.7 hPa West 25.7 km/h 37 km/h 81 % 0 mm 0 W/m2
20:17 3.6 °C 0.4 °C 1006.7 hPa WNW 20.9 km/h 32.2 km/h 80 % 0 mm 0 W/m2
20:22 3.6 °C 0.3 °C 1006.7 hPa West 27.4 km/h 45.1 km/h 79 % 0 mm 0 W/m2
20:37 3.6 °C -0.2 °C 1006.7 hPa West 33.8 km/h 46.7 km/h 76 % 0 mm 0 W/m2
20:42 3.6 °C -0.2 °C 1006.7 hPa WNW 29 km/h 43.5 km/h 76 % 0 mm 0 W/m2
20:47 3.6 °C -0.4 °C 1006.7 hPa West 30.6 km/h 48.3 km/h 75 % 0 mm 0 W/m2
20:57 3.7 °C -0.3 °C 1006.7 hPa West 29 km/h 43.5 km/h 75 % 0 mm 0 W/m2
21:02 3.7 °C -0.3 °C 1007 hPa West 22.5 km/h 38.6 km/h 75 % 0 mm 0 W/m2
21:07 3.6 °C -0.4 °C 1007 hPa West 24.1 km/h 40.2 km/h 75 % 0 mm 0 W/m2
21:12 3.6 °C -0.4 °C 1007 hPa West 22.5 km/h 35.4 km/h 75 % 0 mm 0 W/m2
21:17 3.6 °C -0.6 °C 1007 hPa West 20.9 km/h 35.4 km/h 74 % 0 mm 0 W/m2
21:22 3.6 °C -0.6 °C 1007 hPa WNW 20.9 km/h 38.6 km/h 74 % 0 mm 0 W/m2
21:27 3.6 °C -0.8 °C 1007 hPa WNW 20.9 km/h 37 km/h 73 % 0 mm 0 W/m2
21:32 3.5 °C -0.9 °C 1007.3 hPa WNW 20.9 km/h 33.8 km/h 73 % 0 mm 0 W/m2
21:37 3.5 °C -0.9 °C 1007.3 hPa WNW 22.5 km/h 37 km/h 73 % 0 mm 0 W/m2
21:42 3.5 °C -0.9 °C 1007.3 hPa WNW 20.9 km/h 32.2 km/h 73 % 0 mm 0 W/m2
21:47 3.4 °C -1 °C 1007 hPa West 14.5 km/h 20.9 km/h 73 % 0 mm 0 W/m2
21:52 3.3 °C -1.1 °C 1007 hPa West 14.5 km/h 20.9 km/h 73 % 0 mm 0 W/m2
21:57 3.3 °C -0.9 °C 1007 hPa WNW 14.5 km/h 30.6 km/h 74 % 0 mm 0 W/m2
22:02 3.3 °C -1.1 °C 1007 hPa West 14.5 km/h 24.1 km/h 73 % 0 mm 0 W/m2
22:07 3.3 °C -1.1 °C 1007 hPa West 16.1 km/h 32.2 km/h 73 % 0 mm 0 W/m2
22:08 3.3 °C -1.1 °C 1007 hPa West 16.1 km/h 32.2 km/h 73 % 0 mm 0 W/m2
22:13 3.3 °C -1.1 °C 1007 hPa West 14.5 km/h 20.9 km/h 73 % 0 mm 0 W/m2
22:18 3.3 °C -1.1 °C 1006.7 hPa West 14.5 km/h 25.7 km/h 73 % 0 mm 0 W/m2
22:28 3.1 °C -0.9 °C 1006.7 hPa West 16.1 km/h 24.1 km/h 75 % 0 mm 0 W/m2
22:38 2.9 °C -0.7 °C 1007 hPa WNW 11.3 km/h 24.1 km/h 77 % 0 mm 0 W/m2
22:55 3 °C -0.7 °C 1007 hPa West 14.5 km/h 25.7 km/h 77 % 0 mm 0 W/m2
23:05 3.1 °C -0.6 °C 1007 hPa West 6.4 km/h 12.9 km/h 77 % 0 mm 0 W/m2
23:10 3.2 °C -0.4 °C 1007 hPa West 4.8 km/h 9.7 km/h 77 % 0 mm 0 W/m2
23:15 3.2 °C -0.4 °C 1007 hPa West 4.8 km/h 11.3 km/h 77 % 0 mm 0 W/m2
23:25 3.2 °C -0.4 °C 1007 hPa West 14.5 km/h 20.9 km/h 77 % 0 mm 0 W/m2
23:30 3.3 °C 0 °C 1007 hPa West 16.1 km/h 24.1 km/h 79 % 0 mm 0 W/m2
23:35 3.3 °C 0 °C 1007 hPa West 19.3 km/h 32.2 km/h 79 % 0 mm 0 W/m2
23:40 3.3 °C 0.3 °C 1007.3 hPa WNW 22.5 km/h 37 km/h 81 % 0 mm 0 W/m2
23:50 3.2 °C 0.8 °C 1007.3 hPa WNW 14.5 km/h 24.1 km/h 84 % 0 mm 0 W/m2
23:55 2.9 °C 0.6 °C 1007.3 hPa NW 9.7 km/h 14.5 km/h 85 % 0.25 mm 0 W/m2
Delerius-Weather
Compliments of Weather Underground - 2.25 mb

Data updates at regular intervals.